sensor_id;sensor_type;location;lat;lon;timestamp;temperature;humidity
13203;DHT22;6666;51.626;7.530;2023-06-14T00:00:02;18.90;72.30
13203;DHT22;6666;51.626;7.530;2023-06-14T00:02:32;18.90;72.60
13203;DHT22;6666;51.626;7.530;2023-06-14T00:05:01;18.90;72.00
13203;DHT22;6666;51.626;7.530;2023-06-14T00:07:36;18.80;71.40
13203;DHT22;6666;51.626;7.530;2023-06-14T00:10:06;18.70;71.60
13203;DHT22;6666;51.626;7.530;2023-06-14T00:12:34;18.80;72.40
13203;DHT22;6666;51.626;7.530;2023-06-14T00:15:03;18.70;72.20
13203;DHT22;6666;51.626;7.530;2023-06-14T00:17:33;18.60;71.30
13203;DHT22;6666;51.626;7.530;2023-06-14T00:20:04;18.60;71.60
13203;DHT22;6666;51.626;7.530;2023-06-14T00:22:34;18.60;71.40
13203;DHT22;6666;51.626;7.530;2023-06-14T00:25:04;18.60;71.70
13203;DHT22;6666;51.626;7.530;2023-06-14T00:27:53;18.50;71.50
13203;DHT22;6666;51.626;7.530;2023-06-14T00:30:21;18.50;71.50
13203;DHT22;6666;51.626;7.530;2023-06-14T00:32:51;18.50;71.30
13203;DHT22;6666;51.626;7.530;2023-06-14T00:35:19;18.50;71.70
13203;DHT22;6666;51.626;7.530;2023-06-14T00:37:47;18.40;71.50
13203;DHT22;6666;51.626;7.530;2023-06-14T00:40:15;18.40;71.80
13203;DHT22;6666;51.626;7.530;2023-06-14T00:42:45;18.40;71.90
13203;DHT22;6666;51.626;7.530;2023-06-14T00:45:13;18.30;72.00
13203;DHT22;6666;51.626;7.530;2023-06-14T00:47:41;18.20;72.70
13203;DHT22;6666;51.626;7.530;2023-06-14T00:50:12;18.20;72.80
13203;DHT22;6666;51.626;7.530;2023-06-14T00:52:40;18.20;72.40
13203;DHT22;6666;51.626;7.530;2023-06-14T00:55:09;18.10;72.30
13203;DHT22;6666;51.626;7.530;2023-06-14T00:57:37;18.10;73.30
13203;DHT22;6666;51.626;7.530;2023-06-14T01:00:07;18.10;72.30
13203;DHT22;6666;51.626;7.530;2023-06-14T01:02:37;18.10;72.50
13203;DHT22;6666;51.626;7.530;2023-06-14T01:05:08;18.10;72.70
13203;DHT22;6666;51.626;7.530;2023-06-14T01:08:05;18.00;72.30
13203;DHT22;6666;51.626;7.530;2023-06-14T01:10:45;18.00;72.90
13203;DHT22;6666;51.626;7.530;2023-06-14T01:13:20;18.00;72.70
13203;DHT22;6666;51.626;7.530;2023-06-14T01:15:50;18.00;73.10
13203;DHT22;6666;51.626;7.530;2023-06-14T01:18:19;17.80;73.60
13203;DHT22;6666;51.626;7.530;2023-06-14T01:20:47;17.80;73.30
13203;DHT22;6666;51.626;7.530;2023-06-14T01:23:19;17.80;74.00
13203;DHT22;6666;51.626;7.530;2023-06-14T01:25:48;17.90;73.40
13203;DHT22;6666;51.626;7.530;2023-06-14T01:28:21;17.80;73.30
13203;DHT22;6666;51.626;7.530;2023-06-14T01:30:52;17.80;73.30
13203;DHT22;6666;51.626;7.530;2023-06-14T01:33:24;17.80;73.80
13203;DHT22;6666;51.626;7.530;2023-06-14T01:35:58;17.70;73.70
13203;DHT22;6666;51.626;7.530;2023-06-14T01:38:30;17.60;74.40
13203;DHT22;6666;51.626;7.530;2023-06-14T01:41:00;17.60;74.30
13203;DHT22;6666;51.626;7.530;2023-06-14T01:43:29;17.60;74.10
13203;DHT22;6666;51.626;7.530;2023-06-14T01:45:59;17.60;74.30
13203;DHT22;6666;51.626;7.530;2023-06-14T01:48:28;17.50;75.00
13203;DHT22;6666;51.626;7.530;2023-06-14T01:50:56;17.50;74.80
13203;DHT22;6666;51.626;7.530;2023-06-14T01:53:24;17.50;75.00
13203;DHT22;6666;51.626;7.530;2023-06-14T01:55:53;17.40;74.80
13203;DHT22;6666;51.626;7.530;2023-06-14T01:58:22;17.40;75.00
13203;DHT22;6666;51.626;7.530;2023-06-14T02:00:51;17.40;75.40
13203;DHT22;6666;51.626;7.530;2023-06-14T02:03:22;17.40;75.60
13203;DHT22;6666;51.626;7.530;2023-06-14T02:05:52;17.40;75.40
13203;DHT22;6666;51.626;7.530;2023-06-14T02:08:21;17.40;76.00
13203;DHT22;6666;51.626;7.530;2023-06-14T02:10:50;17.40;75.90
13203;DHT22;6666;51.626;7.530;2023-06-14T02:13:19;17.30;76.10
13203;DHT22;6666;51.626;7.530;2023-06-14T02:15:47;17.20;76.30
13203;DHT22;6666;51.626;7.530;2023-06-14T02:18:18;17.20;76.30
13203;DHT22;6666;51.626;7.530;2023-06-14T02:20:46;17.20;76.80
13203;DHT22;6666;51.626;7.530;2023-06-14T02:23:14;17.20;77.00
13203;DHT22;6666;51.626;7.530;2023-06-14T02:25:43;17.20;77.70
13203;DHT22;6666;51.626;7.530;2023-06-14T02:28:11;17.20;77.10
13203;DHT22;6666;51.626;7.530;2023-06-14T02:30:41;17.10;78.00
13203;DHT22;6666;51.626;7.530;2023-06-14T02:33:09;17.10;78.80
13203;DHT22;6666;51.626;7.530;2023-06-14T02:35:39;17.10;78.00
13203;DHT22;6666;51.626;7.530;2023-06-14T02:38:08;17.10;78.30
13203;DHT22;6666;51.626;7.530;2023-06-14T02:40:36;17.10;78.30
13203;DHT22;6666;51.626;7.530;2023-06-14T02:43:04;17.10;78.80
13203;DHT22;6666;51.626;7.530;2023-06-14T02:45:32;17.10;78.50
13203;DHT22;6666;51.626;7.530;2023-06-14T02:48:02;17.10;78.80
13203;DHT22;6666;51.626;7.530;2023-06-14T02:50:31;17.00;79.20
13203;DHT22;6666;51.626;7.530;2023-06-14T02:52:59;17.00;79.30
13203;DHT22;6666;51.626;7.530;2023-06-14T02:55:27;16.90;79.50
13203;DHT22;6666;51.626;7.530;2023-06-14T02:57:55;16.90;80.40
13203;DHT22;6666;51.626;7.530;2023-06-14T03:00:25;16.80;80.20
13203;DHT22;6666;51.626;7.530;2023-06-14T03:02:53;16.80;80.80
13203;DHT22;6666;51.626;7.530;2023-06-14T03:05:24;16.70;81.50
13203;DHT22;6666;51.626;7.530;2023-06-14T03:07:54;16.70;81.40
13203;DHT22;6666;51.626;7.530;2023-06-14T03:10:24;16.60;81.70
13203;DHT22;6666;51.626;7.530;2023-06-14T03:12:57;16.60;82.20
13203;DHT22;6666;51.626;7.530;2023-06-14T03:15:25;16.60;82.10
13203;DHT22;6666;51.626;7.530;2023-06-14T03:17:54;16.60;82.20
13203;DHT22;6666;51.626;7.530;2023-06-14T03:20:25;16.60;82.70
13203;DHT22;6666;51.626;7.530;2023-06-14T03:22:56;16.60;82.90
13203;DHT22;6666;51.626;7.530;2023-06-14T03:25:24;16.60;83.00
13203;DHT22;6666;51.626;7.530;2023-06-14T03:27:56;16.50;83.40
13203;DHT22;6666;51.626;7.530;2023-06-14T03:30:25;16.50;83.80
13203;DHT22;6666;51.626;7.530;2023-06-14T03:32:53;16.50;84.70
13203;DHT22;6666;51.626;7.530;2023-06-14T03:35:25;16.60;84.30
13203;DHT22;6666;51.626;7.530;2023-06-14T03:37:53;16.60;84.20
13203;DHT22;6666;51.626;7.530;2023-06-14T03:40:23;16.70;84.80
13203;DHT22;6666;51.626;7.530;2023-06-14T03:42:59;17.20;83.70
13203;DHT22;6666;51.626;7.530;2023-06-14T03:45:27;17.70;81.60
13203;DHT22;6666;51.626;7.530;2023-06-14T03:47:57;18.30;80.30
13203;DHT22;6666;51.626;7.530;2023-06-14T03:50:31;18.80;78.70
13203;DHT22;6666;51.626;7.530;2023-06-14T03:53:00;19.10;78.50
13203;DHT22;6666;51.626;7.530;2023-06-14T03:55:30;19.20;77.30
13203;DHT22;6666;51.626;7.530;2023-06-14T03:58:03;19.50;77.30
13203;DHT22;6666;51.626;7.530;2023-06-14T04:00:32;19.60;75.10
13203;DHT22;6666;51.626;7.530;2023-06-14T04:03:01;19.50;74.90
13203;DHT22;6666;51.626;7.530;2023-06-14T04:05:32;19.70;75.60
13203;DHT22;6666;51.626;7.530;2023-06-14T04:08:00;19.60;75.60
13203;DHT22;6666;51.626;7.530;2023-06-14T04:10:31;19.00;76.80
13203;DHT22;6666;51.626;7.530;2023-06-14T04:12:59;18.70;77.60
13203;DHT22;6666;51.626;7.530;2023-06-14T04:15:27;18.70;78.40
13203;DHT22;6666;51.626;7.530;2023-06-14T04:17:57;18.50;79.00
13203;DHT22;6666;51.626;7.530;2023-06-14T04:20:25;18.80;78.30
13203;DHT22;6666;51.626;7.530;2023-06-14T04:22:56;19.00;78.60
13203;DHT22;6666;51.626;7.530;2023-06-14T04:25:25;19.10;77.60
13203;DHT22;6666;51.626;7.530;2023-06-14T04:27:55;18.90;78.30
13203;DHT22;6666;51.626;7.530;2023-06-14T04:30:24;19.20;78.30
13203;DHT22;6666;51.626;7.530;2023-06-14T04:32:53;19.20;78.10
13203;DHT22;6666;51.626;7.530;2023-06-14T04:35:23;19.00;78.50
13203;DHT22;6666;51.626;7.530;2023-06-14T04:37:52;19.10;79.70
13203;DHT22;6666;51.626;7.530;2023-06-14T04:40:23;18.90;79.70
13203;DHT22;6666;51.626;7.530;2023-06-14T04:42:52;19.20;79.60
13203;DHT22;6666;51.626;7.530;2023-06-14T04:45:21;19.20;79.40
13203;DHT22;6666;51.626;7.530;2023-06-14T04:47:50;19.20;80.10
13203;DHT22;6666;51.626;7.530;2023-06-14T04:50:26;19.50;79.90
13203;DHT22;6666;51.626;7.530;2023-06-14T04:52:56;19.40;79.20
13203;DHT22;6666;51.626;7.530;2023-06-14T04:55:28;19.50;77.90
13203;DHT22;6666;51.626;7.530;2023-06-14T04:57:57;19.90;79.10
13203;DHT22;6666;51.626;7.530;2023-06-14T05:00:28;20.20;78.00
13203;DHT22;6666;51.626;7.530;2023-06-14T05:02:57;19.70;78.00
13203;DHT22;6666;51.626;7.530;2023-06-14T05:05:26;19.60;79.10
13203;DHT22;6666;51.626;7.530;2023-06-14T05:07:54;19.90;79.20
13203;DHT22;6666;51.626;7.530;2023-06-14T05:10:24;20.00;78.50
13203;DHT22;6666;51.626;7.530;2023-06-14T05:12:53;20.00;80.40
13203;DHT22;6666;51.626;7.530;2023-06-14T05:15:22;20.00;79.60
13203;DHT22;6666;51.626;7.530;2023-06-14T05:17:52;20.10;79.00
13203;DHT22;6666;51.626;7.530;2023-06-14T05:20:22;20.20;79.30
13203;DHT22;6666;51.626;7.530;2023-06-14T05:22:52;20.40;78.70
13203;DHT22;6666;51.626;7.530;2023-06-14T05:25:20;20.30;78.20
13203;DHT22;6666;51.626;7.530;2023-06-14T05:27:49;20.40;76.50
13203;DHT22;6666;51.626;7.530;2023-06-14T05:30:18;20.20;78.20
13203;DHT22;6666;51.626;7.530;2023-06-14T05:32:46;20.50;78.80
13203;DHT22;6666;51.626;7.530;2023-06-14T05:35:15;20.60;78.30
13203;DHT22;6666;51.626;7.530;2023-06-14T05:37:44;20.30;77.50
13203;DHT22;6666;51.626;7.530;2023-06-14T05:40:12;20.50;78.40
13203;DHT22;6666;51.626;7.530;2023-06-14T05:42:41;20.80;78.10
13203;DHT22;6666;51.626;7.530;2023-06-14T05:45:10;21.00;77.70
13203;DHT22;6666;51.626;7.530;2023-06-14T05:47:39;21.00;78.60
13203;DHT22;6666;51.626;7.530;2023-06-14T05:50:08;21.10;78.50
13203;DHT22;6666;51.626;7.530;2023-06-14T05:52:37;21.10;77.30
13203;DHT22;6666;51.626;7.530;2023-06-14T05:55:06;21.20;77.20
13203;DHT22;6666;51.626;7.530;2023-06-14T05:57:34;21.30;76.10
13203;DHT22;6666;51.626;7.530;2023-06-14T06:00:02;20.80;75.40
13203;DHT22;6666;51.626;7.530;2023-06-14T06:02:39;20.70;76.10
13203;DHT22;6666;51.626;7.530;2023-06-14T06:05:08;20.30;76.30
13203;DHT22;6666;51.626;7.530;2023-06-14T06:07:36;20.40;75.70
13203;DHT22;6666;51.626;7.530;2023-06-14T06:10:07;20.20;76.60
13203;DHT22;6666;51.626;7.530;2023-06-14T06:12:35;20.40;76.90
13203;DHT22;6666;51.626;7.530;2023-06-14T06:15:04;20.90;75.80
13203;DHT22;6666;51.626;7.530;2023-06-14T06:17:33;21.00;76.20
13203;DHT22;6666;51.626;7.530;2023-06-14T06:20:21;21.10;75.40
13203;DHT22;6666;51.626;7.530;2023-06-14T06:22:54;21.10;74.50
13203;DHT22;6666;51.626;7.530;2023-06-14T06:25:23;21.00;75.30
13203;DHT22;6666;51.626;7.530;2023-06-14T06:27:53;20.60;75.60
13203;DHT22;6666;51.626;7.530;2023-06-14T06:30:21;20.90;75.80
13203;DHT22;6666;51.626;7.530;2023-06-14T06:32:50;20.80;76.00
13203;DHT22;6666;51.626;7.530;2023-06-14T06:35:18;20.90;74.60
13203;DHT22;6666;51.626;7.530;2023-06-14T06:37:47;20.70;76.00
13203;DHT22;6666;51.626;7.530;2023-06-14T06:40:16;20.60;75.70
13203;DHT22;6666;51.626;7.530;2023-06-14T06:42:44;20.50;76.90
13203;DHT22;6666;51.626;7.530;2023-06-14T06:45:13;20.40;76.60
13203;DHT22;6666;51.626;7.530;2023-06-14T06:47:42;20.30;77.40
13203;DHT22;6666;51.626;7.530;2023-06-14T06:50:10;20.50;77.30
13203;DHT22;6666;51.626;7.530;2023-06-14T06:52:38;20.40;76.60
13203;DHT22;6666;51.626;7.530;2023-06-14T06:55:08;20.80;77.20
13203;DHT22;6666;51.626;7.530;2023-06-14T06:57:37;20.70;75.80
13203;DHT22;6666;51.626;7.530;2023-06-14T07:00:07;20.60;77.10
13203;DHT22;6666;51.626;7.530;2023-06-14T07:02:37;20.50;76.50
13203;DHT22;6666;51.626;7.530;2023-06-14T07:05:05;20.50;76.70
13203;DHT22;6666;51.626;7.530;2023-06-14T07:07:34;20.60;76.70
13203;DHT22;6666;51.626;7.530;2023-06-14T07:10:02;20.60;77.70
13203;DHT22;6666;51.626;7.530;2023-06-14T07:12:33;20.80;77.40
13203;DHT22;6666;51.626;7.530;2023-06-14T07:15:07;20.70;77.00
13203;DHT22;6666;51.626;7.530;2023-06-14T07:17:35;20.60;76.50
13203;DHT22;6666;51.626;7.530;2023-06-14T07:20:05;20.80;77.80
13203;DHT22;6666;51.626;7.530;2023-06-14T07:22:39;21.00;75.80
13203;DHT22;6666;51.626;7.530;2023-06-14T07:25:09;20.70;75.90
13203;DHT22;6666;51.626;7.530;2023-06-14T07:27:41;21.00;76.70
13203;DHT22;6666;51.626;7.530;2023-06-14T07:30:10;20.90;77.40
13203;DHT22;6666;51.626;7.530;2023-06-14T07:32:38;21.00;78.50
13203;DHT22;6666;51.626;7.530;2023-06-14T07:35:07;21.10;76.30
13203;DHT22;6666;51.626;7.530;2023-06-14T07:37:35;20.80;74.80
13203;DHT22;6666;51.626;7.530;2023-06-14T07:40:05;21.00;76.10
13203;DHT22;6666;51.626;7.530;2023-06-14T07:42:34;20.70;75.00
13203;DHT22;6666;51.626;7.530;2023-06-14T07:45:05;21.00;75.30
13203;DHT22;6666;51.626;7.530;2023-06-14T07:47:33;21.20;74.20
13203;DHT22;6666;51.626;7.530;2023-06-14T07:50:02;20.70;72.10
13203;DHT22;6666;51.626;7.530;2023-06-14T07:52:32;20.80;73.00
13203;DHT22;6666;51.626;7.530;2023-06-14T07:55:00;21.10;72.90
13203;DHT22;6666;51.626;7.530;2023-06-14T07:57:29;20.70;71.80
13203;DHT22;6666;51.626;7.530;2023-06-14T07:59:57;20.90;71.50
13203;DHT22;6666;51.626;7.530;2023-06-14T08:02:26;20.80;70.70
13203;DHT22;6666;51.626;7.530;2023-06-14T08:04:55;20.80;70.80
13203;DHT22;6666;51.626;7.530;2023-06-14T08:07:23;20.90;71.50
13203;DHT22;6666;51.626;7.530;2023-06-14T08:09:52;20.80;72.40
13203;DHT22;6666;51.626;7.530;2023-06-14T08:12:20;20.80;71.70
13203;DHT22;6666;51.626;7.530;2023-06-14T08:14:49;20.60;71.40
13203;DHT22;6666;51.626;7.530;2023-06-14T08:17:39;20.60;72.50
13203;DHT22;6666;51.626;7.530;2023-06-14T08:20:09;20.60;72.90
13203;DHT22;6666;51.626;7.530;2023-06-14T08:22:38;21.00;73.70
13203;DHT22;6666;51.626;7.530;2023-06-14T08:25:09;21.20;72.50
13203;DHT22;6666;51.626;7.530;2023-06-14T08:27:39;21.00;69.10
13203;DHT22;6666;51.626;7.530;2023-06-14T08:30:09;20.70;70.70
13203;DHT22;6666;51.626;7.530;2023-06-14T08:32:39;20.60;71.80
13203;DHT22;6666;51.626;7.530;2023-06-14T08:35:07;20.80;72.20
13203;DHT22;6666;51.626;7.530;2023-06-14T08:37:38;20.60;69.30
13203;DHT22;6666;51.626;7.530;2023-06-14T08:40:17;20.30;68.60
13203;DHT22;6666;51.626;7.530;2023-06-14T08:42:48;20.40;69.60
13203;DHT22;6666;51.626;7.530;2023-06-14T08:45:18;20.00;70.20
13203;DHT22;6666;51.626;7.530;2023-06-14T08:47:51;20.00;69.60
13203;DHT22;6666;51.626;7.530;2023-06-14T08:50:25;20.30;70.00
13203;DHT22;6666;51.626;7.530;2023-06-14T08:53:00;20.50;70.40
13203;DHT22;6666;51.626;7.530;2023-06-14T08:55:29;20.80;70.20
13203;DHT22;6666;51.626;7.530;2023-06-14T08:58:02;20.60;68.60
13203;DHT22;6666;51.626;7.530;2023-06-14T09:00:30;20.60;69.00
13203;DHT22;6666;51.626;7.530;2023-06-14T09:03:01;20.50;68.00
13203;DHT22;6666;51.626;7.530;2023-06-14T09:05:30;20.80;68.50
13203;DHT22;6666;51.626;7.530;2023-06-14T09:07:58;20.80;67.70
13203;DHT22;6666;51.626;7.530;2023-06-14T09:10:33;20.90;68.90
13203;DHT22;6666;51.626;7.530;2023-06-14T09:13:02;21.00;70.00
13203;DHT22;6666;51.626;7.530;2023-06-14T09:15:30;21.10;69.80
13203;DHT22;6666;51.626;7.530;2023-06-14T09:18:02;21.10;69.40
13203;DHT22;6666;51.626;7.530;2023-06-14T09:20:31;21.10;71.00
13203;DHT22;6666;51.626;7.530;2023-06-14T09:23:00;21.30;71.20
13203;DHT22;6666;51.626;7.530;2023-06-14T09:25:28;20.90;67.20
13203;DHT22;6666;51.626;7.530;2023-06-14T09:28:06;20.80;67.60
13203;DHT22;6666;51.626;7.530;2023-06-14T09:30:36;21.10;68.80
13203;DHT22;6666;51.626;7.530;2023-06-14T09:33:06;21.00;71.20
13203;DHT22;6666;51.626;7.530;2023-06-14T09:35:35;21.20;70.50
13203;DHT22;6666;51.626;7.530;2023-06-14T09:38:03;21.40;71.00
13203;DHT22;6666;51.626;7.530;2023-06-14T09:40:35;21.60;69.10
13203;DHT22;6666;51.626;7.530;2023-06-14T09:43:06;21.50;69.50
13203;DHT22;6666;51.626;7.530;2023-06-14T09:45:38;21.60;70.70
13203;DHT22;6666;51.626;7.530;2023-06-14T09:48:08;21.70;70.40
13203;DHT22;6666;51.626;7.530;2023-06-14T09:50:37;21.60;69.20
13203;DHT22;6666;51.626;7.530;2023-06-14T09:53:07;21.40;69.20
13203;DHT22;6666;51.626;7.530;2023-06-14T09:55:37;21.70;69.90
13203;DHT22;6666;51.626;7.530;2023-06-14T09:58:08;21.60;69.30
13203;DHT22;6666;51.626;7.530;2023-06-14T10:00:36;21.80;68.70
13203;DHT22;6666;51.626;7.530;2023-06-14T10:03:14;21.90;70.00
13203;DHT22;6666;51.626;7.530;2023-06-14T10:05:45;21.80;67.70
13203;DHT22;6666;51.626;7.530;2023-06-14T10:08:18;21.70;70.10
13203;DHT22;6666;51.626;7.530;2023-06-14T10:10:47;21.30;68.10
13203;DHT22;6666;51.626;7.530;2023-06-14T10:13:16;21.20;69.70
13203;DHT22;6666;51.626;7.530;2023-06-14T10:15:52;21.30;70.60
13203;DHT22;6666;51.626;7.530;2023-06-14T10:18:30;21.30;69.80
13203;DHT22;6666;51.626;7.530;2023-06-14T10:21:05;21.40;69.60
13203;DHT22;6666;51.626;7.530;2023-06-14T10:23:39;21.60;70.20
13203;DHT22;6666;51.626;7.530;2023-06-14T10:26:18;21.60;71.90
13203;DHT22;6666;51.626;7.530;2023-06-14T10:28:57;21.80;71.90
13203;DHT22;6666;51.626;7.530;2023-06-14T10:31:42;21.70;71.50
13203;DHT22;6666;51.626;7.530;2023-06-14T10:34:21;21.60;69.70
13203;DHT22;6666;51.626;7.530;2023-06-14T10:37:02;21.70;70.90
13203;DHT22;6666;51.626;7.530;2023-06-14T10:39:31;21.60;71.20
13203;DHT22;6666;51.626;7.530;2023-06-14T10:42:02;21.80;71.50
13203;DHT22;6666;51.626;7.530;2023-06-14T10:44:43;21.70;71.50
13203;DHT22;6666;51.626;7.530;2023-06-14T10:47:26;21.90;70.40
13203;DHT22;6666;51.626;7.530;2023-06-14T10:49:57;21.70;70.30
13203;DHT22;6666;51.626;7.530;2023-06-14T10:52:27;21.60;71.20
13203;DHT22;6666;51.626;7.530;2023-06-14T10:55:00;21.70;72.20
13203;DHT22;6666;51.626;7.530;2023-06-14T10:57:30;22.00;71.50
13203;DHT22;6666;51.626;7.530;2023-06-14T11:00:12;22.10;68.50
13203;DHT22;6666;51.626;7.530;2023-06-14T11:05:54;21.80;71.00
13203;DHT22;6666;51.626;7.530;2023-06-14T11:08:44;22.00;71.00
13203;DHT22;6666;51.626;7.530;2023-06-14T11:11:22;21.90;69.60
13203;DHT22;6666;51.626;7.530;2023-06-14T11:13:51;21.90;70.70
13203;DHT22;6666;51.626;7.530;2023-06-14T11:16:20;22.00;70.50
13203;DHT22;6666;51.626;7.530;2023-06-14T11:18:49;22.10;70.40
13203;DHT22;6666;51.626;7.530;2023-06-14T11:21:18;22.00;68.80
13203;DHT22;6666;51.626;7.530;2023-06-14T11:23:50;21.90;69.70
13203;DHT22;6666;51.626;7.530;2023-06-14T11:26:26;22.00;68.90
13203;DHT22;6666;51.626;7.530;2023-06-14T11:28:59;22.20;69.40
13203;DHT22;6666;51.626;7.530;2023-06-14T11:31:30;22.30;68.80
13203;DHT22;6666;51.626;7.530;2023-06-14T11:33:59;22.60;70.70
13203;DHT22;6666;51.626;7.530;2023-06-14T11:36:30;22.40;68.50
13203;DHT22;6666;51.626;7.530;2023-06-14T11:38:59;22.70;70.00
13203;DHT22;6666;51.626;7.530;2023-06-14T11:41:36;22.40;69.70
13203;DHT22;6666;51.626;7.530;2023-06-14T11:44:05;22.10;68.90
13203;DHT22;6666;51.626;7.530;2023-06-14T11:46:34;22.10;68.30
13203;DHT22;6666;51.626;7.530;2023-06-14T11:49:02;22.20;69.00
13203;DHT22;6666;51.626;7.530;2023-06-14T11:51:34;22.30;68.50
13203;DHT22;6666;51.626;7.530;2023-06-14T11:54:03;22.30;69.10
13203;DHT22;6666;51.626;7.530;2023-06-14T11:56:32;22.40;68.80
13203;DHT22;6666;51.626;7.530;2023-06-14T11:59:02;22.40;69.10
13203;DHT22;6666;51.626;7.530;2023-06-14T12:01:31;22.40;69.90
13203;DHT22;6666;51.626;7.530;2023-06-14T12:03:59;22.60;69.00
13203;DHT22;6666;51.626;7.530;2023-06-14T12:06:30;22.90;70.10
13203;DHT22;6666;51.626;7.530;2023-06-14T12:09:03;22.90;69.70
13203;DHT22;6666;51.626;7.530;2023-06-14T12:11:34;23.10;68.40
13203;DHT22;6666;51.626;7.530;2023-06-14T12:14:04;22.90;68.40
13203;DHT22;6666;51.626;7.530;2023-06-14T12:16:33;22.70;67.70
13203;DHT22;6666;51.626;7.530;2023-06-14T12:19:09;22.80;67.80
13203;DHT22;6666;51.626;7.530;2023-06-14T12:21:38;22.80;68.60
13203;DHT22;6666;51.626;7.530;2023-06-14T12:24:09;22.90;67.70
13203;DHT22;6666;51.626;7.530;2023-06-14T12:26:40;22.90;68.60
13203;DHT22;6666;51.626;7.530;2023-06-14T12:29:08;22.90;67.10
13203;DHT22;6666;51.626;7.530;2023-06-14T12:31:39;23.10;67.00
13203;DHT22;6666;51.626;7.530;2023-06-14T12:34:07;23.00;68.20
13203;DHT22;6666;51.626;7.530;2023-06-14T12:36:35;23.20;67.50
13203;DHT22;6666;51.626;7.530;2023-06-14T12:39:09;23.10;68.40
13203;DHT22;6666;51.626;7.530;2023-06-14T12:41:38;23.10;67.70
13203;DHT22;6666;51.626;7.530;2023-06-14T12:44:08;23.00;67.20
13203;DHT22;6666;51.626;7.530;2023-06-14T12:46:36;23.10;67.40
13203;DHT22;6666;51.626;7.530;2023-06-14T12:49:07;23.30;67.60
13203;DHT22;6666;51.626;7.530;2023-06-14T12:51:35;23.40;65.70
13203;DHT22;6666;51.626;7.530;2023-06-14T12:54:04;23.10;67.00
13203;DHT22;6666;51.626;7.530;2023-06-14T12:56:34;23.10;67.20
13203;DHT22;6666;51.626;7.530;2023-06-14T12:59:02;23.10;66.00
13203;DHT22;6666;51.626;7.530;2023-06-14T13:01:30;23.10;67.30
13203;DHT22;6666;51.626;7.530;2023-06-14T13:03:58;23.10;67.00
13203;DHT22;6666;51.626;7.530;2023-06-14T13:06:27;23.10;66.70
13203;DHT22;6666;51.626;7.530;2023-06-14T13:08:56;23.30;64.60
13203;DHT22;6666;51.626;7.530;2023-06-14T13:11:25;23.50;67.40
13203;DHT22;6666;51.626;7.530;2023-06-14T13:13:55;23.60;65.70
13203;DHT22;6666;51.626;7.530;2023-06-14T13:16:23;23.30;65.50
13203;DHT22;6666;51.626;7.530;2023-06-14T13:18:51;23.20;65.80
13203;DHT22;6666;51.626;7.530;2023-06-14T13:21:19;23.20;65.40
13203;DHT22;6666;51.626;7.530;2023-06-14T13:23:48;23.40;65.00
13203;DHT22;6666;51.626;7.530;2023-06-14T13:26:16;23.60;64.30
13203;DHT22;6666;51.626;7.530;2023-06-14T13:28:45;23.60;63.90
13203;DHT22;6666;51.626;7.530;2023-06-14T13:31:15;23.60;63.50
13203;DHT22;6666;51.626;7.530;2023-06-14T13:33:44;23.70;65.00
13203;DHT22;6666;51.626;7.530;2023-06-14T13:36:12;23.40;64.20
13203;DHT22;6666;51.626;7.530;2023-06-14T13:38:40;23.70;64.80
13203;DHT22;6666;51.626;7.530;2023-06-14T13:41:08;23.60;65.70
13203;DHT22;6666;51.626;7.530;2023-06-14T13:43:36;23.60;64.90
13203;DHT22;6666;51.626;7.530;2023-06-14T13:46:04;23.80;65.00
13203;DHT22;6666;51.626;7.530;2023-06-14T13:48:34;23.90;64.20
13203;DHT22;6666;51.626;7.530;2023-06-14T13:51:02;24.00;62.80
13203;DHT22;6666;51.626;7.530;2023-06-14T13:53:31;24.10;62.20
13203;DHT22;6666;51.626;7.530;2023-06-14T13:55:59;24.00;62.70
13203;DHT22;6666;51.626;7.530;2023-06-14T13:58:27;24.20;64.40
13203;DHT22;6666;51.626;7.530;2023-06-14T14:00:56;24.30;63.90
13203;DHT22;6666;51.626;7.530;2023-06-14T14:03:26;24.20;63.70
13203;DHT22;6666;51.626;7.530;2023-06-14T14:05:56;24.00;62.40
13203;DHT22;6666;51.626;7.530;2023-06-14T14:08:24;23.70;62.20
13203;DHT22;6666;51.626;7.530;2023-06-14T14:10:52;24.00;63.40
13203;DHT22;6666;51.626;7.530;2023-06-14T14:13:21;24.10;62.60
13203;DHT22;6666;51.626;7.530;2023-06-14T14:15:49;24.00;62.70
13203;DHT22;6666;51.626;7.530;2023-06-14T14:18:17;24.20;63.40
13203;DHT22;6666;51.626;7.530;2023-06-14T14:20:47;24.00;61.40
13203;DHT22;6666;51.626;7.530;2023-06-14T14:23:17;23.90;62.60
13203;DHT22;6666;51.626;7.530;2023-06-14T14:25:46;24.00;63.90
13203;DHT22;6666;51.626;7.530;2023-06-14T14:28:15;24.00;61.80
13203;DHT22;6666;51.626;7.530;2023-06-14T14:30:45;24.10;62.70
13203;DHT22;6666;51.626;7.530;2023-06-14T14:33:14;23.90;61.50
13203;DHT22;6666;51.626;7.530;2023-06-14T14:35:44;23.50;61.30
13203;DHT22;6666;51.626;7.530;2023-06-14T14:38:14;23.80;63.00
13203;DHT22;6666;51.626;7.530;2023-06-14T14:40:44;24.00;62.50
13203;DHT22;6666;51.626;7.530;2023-06-14T14:43:12;24.00;60.80
13203;DHT22;6666;51.626;7.530;2023-06-14T14:45:41;23.80;60.50
13203;DHT22;6666;51.626;7.530;2023-06-14T14:48:09;23.90;60.90
13203;DHT22;6666;51.626;7.530;2023-06-14T14:50:38;23.80;61.80
13203;DHT22;6666;51.626;7.530;2023-06-14T14:53:06;23.90;61.40
13203;DHT22;6666;51.626;7.530;2023-06-14T14:55:34;24.00;61.20
13203;DHT22;6666;51.626;7.530;2023-06-14T14:58:05;23.90;61.60
13203;DHT22;6666;51.626;7.530;2023-06-14T15:00:35;23.90;61.70
13203;DHT22;6666;51.626;7.530;2023-06-14T15:03:03;23.90;61.80
13203;DHT22;6666;51.626;7.530;2023-06-14T15:05:31;24.10;63.60
13203;DHT22;6666;51.626;7.530;2023-06-14T15:08:00;23.90;61.40
13203;DHT22;6666;51.626;7.530;2023-06-14T15:10:28;24.00;62.00
13203;DHT22;6666;51.626;7.530;2023-06-14T15:12:56;24.30;62.10
13203;DHT22;6666;51.626;7.530;2023-06-14T15:15:26;24.20;61.50
13203;DHT22;6666;51.626;7.530;2023-06-14T15:17:55;24.00;61.30
13203;DHT22;6666;51.626;7.530;2023-06-14T15:20:23;24.20;61.50
13203;DHT22;6666;51.626;7.530;2023-06-14T15:22:52;24.30;61.10
13203;DHT22;6666;51.626;7.530;2023-06-14T15:25:20;24.20;61.80
13203;DHT22;6666;51.626;7.530;2023-06-14T15:27:48;24.30;59.80
13203;DHT22;6666;51.626;7.530;2023-06-14T15:30:16;24.20;59.50
13203;DHT22;6666;51.626;7.530;2023-06-14T15:32:46;24.20;60.50
13203;DHT22;6666;51.626;7.530;2023-06-14T15:35:16;24.30;61.10
13203;DHT22;6666;51.626;7.530;2023-06-14T15:37:44;24.30;61.00
13203;DHT22;6666;51.626;7.530;2023-06-14T15:40:12;23.80;60.90
13203;DHT22;6666;51.626;7.530;2023-06-14T15:42:41;23.90;60.80
13203;DHT22;6666;51.626;7.530;2023-06-14T15:45:10;23.90;62.10
13203;DHT22;6666;51.626;7.530;2023-06-14T15:47:38;23.70;62.00
13203;DHT22;6666;51.626;7.530;2023-06-14T15:50:08;24.00;61.20
13203;DHT22;6666;51.626;7.530;2023-06-14T15:52:37;24.00;60.50
13203;DHT22;6666;51.626;7.530;2023-06-14T15:55:06;24.00;60.30
13203;DHT22;6666;51.626;7.530;2023-06-14T15:57:34;24.10;60.50
13203;DHT22;6666;51.626;7.530;2023-06-14T16:00:03;24.10;60.50
13203;DHT22;6666;51.626;7.530;2023-06-14T16:02:32;24.00;60.10
13203;DHT22;6666;51.626;7.530;2023-06-14T16:05:00;24.20;60.90